sensor_id;sensor_type;location;lat;lon;timestamp;pressure;altitude;pressure_sealevel;temperature;humidity
51195;BME280;37259;49.972;19.850;2023-01-28T00:00:01;99170;;;-0.7;78.3
51195;BME280;37259;49.972;19.850;2023-01-28T00:01:03;99170;;;-0.7;78.4
51195;BME280;37259;49.972;19.850;2023-01-28T00:02:01;99170;;;-0.7;78.4
51195;BME280;37259;49.972;19.850;2023-01-28T00:03:00;99170;;;-0.7;78.4
51195;BME280;37259;49.972;19.850;2023-01-28T00:04:01;99170;;;-0.7;78.5
51195;BME280;37259;49.972;19.850;2023-01-28T00:05:01;99170;;;-0.7;78.4
51195;BME280;37259;49.972;19.850;2023-01-28T00:06:01;99170;;;-0.7;78.4
51195;BME280;37259;49.972;19.850;2023-01-28T00:07:00;99170;;;-0.7;78.5
51195;BME280;37259;49.972;19.850;2023-01-28T00:08:00;99180;;;-0.7;78.5
51195;BME280;37259;49.972;19.850;2023-01-28T00:09:00;99180;;;-0.7;78.5
51195;BME280;37259;49.972;19.850;2023-01-28T00:10:00;99170;;;-0.7;78.5
51195;BME280;37259;49.972;19.850;2023-01-28T00:11:01;99170;;;-0.7;78.5
51195;BME280;37259;49.972;19.850;2023-01-28T00:12:00;99170;;;-0.7;78.4
51195;BME280;37259;49.972;19.850;2023-01-28T00:13:01;99170;;;-0.7;78.4
51195;BME280;37259;49.972;19.850;2023-01-28T00:14:00;99170;;;-0.7;78.4
51195;BME280;37259;49.972;19.850;2023-01-28T00:15:01;99170;;;-0.7;78.5
51195;BME280;37259;49.972;19.850;2023-01-28T00:16:01;99170;;;-0.7;78.5
51195;BME280;37259;49.972;19.850;2023-01-28T00:17:03;99170;;;-0.7;78.5
51195;BME280;37259;49.972;19.850;2023-01-28T00:18:00;99170;;;-0.7;78.6
51195;BME280;37259;49.972;19.850;2023-01-28T00:19:00;99170;;;-0.6;78.6
51195;BME280;37259;49.972;19.850;2023-01-28T00:20:00;99170;;;-0.6;78.6
51195;BME280;37259;49.972;19.850;2023-01-28T00:21:01;99170;;;-0.6;78.6
51195;BME280;37259;49.972;19.850;2023-01-28T00:22:00;99170;;;-0.6;78.6
51195;BME280;37259;49.972;19.850;2023-01-28T00:23:01;99160;;;-0.7;78.7
51195;BME280;37259;49.972;19.850;2023-01-28T00:24:00;99160;;;-0.7;78.7
51195;BME280;37259;49.972;19.850;2023-01-28T00:25:00;99170;;;-0.7;78.8
51195;BME280;37259;49.972;19.850;2023-01-28T00:26:02;99170;;;-0.7;78.8
51195;BME280;37259;49.972;19.850;2023-01-28T00:27:00;99170;;;-0.7;78.8
51195;BME280;37259;49.972;19.850;2023-01-28T00:28:00;99170;;;-0.7;78.8
51195;BME280;37259;49.972;19.850;2023-01-28T00:29:00;99170;;;-0.6;78.7
51195;BME280;37259;49.972;19.850;2023-01-28T00:30:00;99170;;;-0.6;78.8
51195;BME280;37259;49.972;19.850;2023-01-28T00:31:04;99170;;;-0.6;78.8
51195;BME280;37259;49.972;19.850;2023-01-28T00:32:01;99170;;;-0.6;78.8
51195;BME280;37259;49.972;19.850;2023-01-28T00:33:00;99170;;;-0.6;78.7
51195;BME280;37259;49.972;19.850;2023-01-28T00:34:00;99170;;;-0.6;78.8
51195;BME280;37259;49.972;19.850;2023-01-28T00:35:00;99180;;;-0.6;78.8
51195;BME280;37259;49.972;19.850;2023-01-28T00:36:01;99180;;;-0.6;78.8
51195;BME280;37259;49.972;19.850;2023-01-28T00:37:01;99180;;;-0.7;78.9
51195;BME280;37259;49.972;19.850;2023-01-28T00:38:00;99180;;;-0.6;78.9
51195;BME280;37259;49.972;19.850;2023-01-28T00:39:00;99180;;;-0.6;78.9
51195;BME280;37259;49.972;19.850;2023-01-28T00:40:00;99180;;;-0.6;79
51195;BME280;37259;49.972;19.850;2023-01-28T00:41:05;99180;;;-0.6;79
51195;BME280;37259;49.972;19.850;2023-01-28T00:42:00;99180;;;-0.7;78.8
51195;BME280;37259;49.972;19.850;2023-01-28T00:43:00;99180;;;-0.7;78.8
51195;BME280;37259;49.972;19.850;2023-01-28T00:44:01;99180;;;-0.6;79
51195;BME280;37259;49.972;19.850;2023-01-28T00:45:00;99180;;;-0.7;79.1
51195;BME280;37259;49.972;19.850;2023-01-28T00:46:00;99180;;;-0.7;79.1
51195;BME280;37259;49.972;19.850;2023-01-28T00:47:00;99180;;;-0.7;79.3
51195;BME280;37259;49.972;19.850;2023-01-28T00:48:00;99180;;;-0.7;79.3
51195;BME280;37259;49.972;19.850;2023-01-28T00:49:01;99180;;;-0.6;79.2
51195;BME280;37259;49.972;19.850;2023-01-28T00:50:01;99180;;;-0.6;79.2
51195;BME280;37259;49.972;19.850;2023-01-28T00:51:01;99180;;;-0.7;79.2
51195;BME280;37259;49.972;19.850;2023-01-28T00:52:00;99180;;;-0.7;79.2
51195;BME280;37259;49.972;19.850;2023-01-28T00:53:00;99180;;;-0.6;79.1
51195;BME280;37259;49.972;19.850;2023-01-28T00:54:00;99180;;;-0.6;79.1
51195;BME280;37259;49.972;19.850;2023-01-28T00:55:00;99180;;;-0.6;79.2
51195;BME280;37259;49.972;19.850;2023-01-28T00:56:01;99180;;;-0.6;79.2
51195;BME280;37259;49.972;19.850;2023-01-28T00:57:01;99180;;;-0.6;79.2
51195;BME280;37259;49.972;19.850;2023-01-28T00:58:00;99180;;;-0.6;79.3
51195;BME280;37259;49.972;19.850;2023-01-28T00:59:01;99180;;;-0.6;79.3
51195;BME280;37259;49.972;19.850;2023-01-28T01:00:00;99180;;;-0.6;79.3
51195;BME280;37259;49.972;19.850;2023-01-28T01:01:05;99180;;;-0.6;79.2
51195;BME280;37259;49.972;19.850;2023-01-28T01:02:01;99180;;;-0.6;79.2
51195;BME280;37259;49.972;19.850;2023-01-28T01:03:01;99180;;;-0.5;79.2
51195;BME280;37259;49.972;19.850;2023-01-28T01:04:00;99180;;;-0.5;79.2
51195;BME280;37259;49.972;19.850;2023-01-28T01:05:00;99180;;;-0.5;79.2
51195;BME280;37259;49.972;19.850;2023-01-28T01:06:00;99170;;;-0.5;79.1
51195;BME280;37259;49.972;19.850;2023-01-28T01:07:00;99180;;;-0.5;79.1
51195;BME280;37259;49.972;19.850;2023-01-28T01:08:00;99180;;;-0.5;79.1
51195;BME280;37259;49.972;19.850;2023-01-28T01:09:00;99180;;;-0.5;79.1
51195;BME280;37259;49.972;19.850;2023-01-28T01:10:01;99180;;;-0.5;79
51195;BME280;37259;49.972;19.850;2023-01-28T01:11:00;99180;;;-0.5;79
51195;BME280;37259;49.972;19.850;2023-01-28T01:12:00;99180;;;-0.5;79
51195;BME280;37259;49.972;19.850;2023-01-28T01:13:00;99180;;;-0.5;79
51195;BME280;37259;49.972;19.850;2023-01-28T01:14:01;99180;;;-0.5;79
51195;BME280;37259;49.972;19.850;2023-01-28T01:15:01;99180;;;-0.5;79
51195;BME280;37259;49.972;19.850;2023-01-28T01:16:01;99180;;;-0.5;79.1
51195;BME280;37259;49.972;19.850;2023-01-28T01:17:01;99180;;;-0.5;79.2
51195;BME280;37259;49.972;19.850;2023-01-28T01:18:01;99180;;;-0.5;79.2
51195;BME280;37259;49.972;19.850;2023-01-28T01:19:01;99180;;;-0.5;79.2
51195;BME280;37259;49.972;19.850;2023-01-28T01:20:00;99180;;;-0.5;79.2
51195;BME280;37259;49.972;19.850;2023-01-28T01:21:01;99180;;;-0.5;79.1
51195;BME280;37259;49.972;19.850;2023-01-28T01:22:00;99180;;;-0.5;79.1
51195;BME280;37259;49.972;19.850;2023-01-28T01:23:00;99180;;;-0.4;79.1
51195;BME280;37259;49.972;19.850;2023-01-28T01:24:00;99180;;;-0.4;79.1
51195;BME280;37259;49.972;19.850;2023-01-28T01:25:01;99190;;;-0.4;79
51195;BME280;37259;49.972;19.850;2023-01-28T01:26:00;99190;;;-0.4;79
51195;BME280;37259;49.972;19.850;2023-01-28T01:27:01;99190;;;-0.4;79
51195;BME280;37259;49.972;19.850;2023-01-28T01:28:00;99190;;;-0.4;79
51195;BME280;37259;49.972;19.850;2023-01-28T01:29:00;99190;;;-0.4;79.1
51195;BME280;37259;49.972;19.850;2023-01-28T01:30:01;99190;;;-0.5;79.1
51195;BME280;37259;49.972;19.850;2023-01-28T01:31:01;99190;;;-0.5;79.2
51195;BME280;37259;49.972;19.850;2023-01-28T01:32:01;99190;;;-0.5;79.2
51195;BME280;37259;49.972;19.850;2023-01-28T01:33:01;99190;;;-0.5;79.3
51195;BME280;37259;49.972;19.850;2023-01-28T01:34:01;99190;;;-0.5;79.3
51195;BME280;37259;49.972;19.850;2023-01-28T01:35:01;99190;;;-0.5;79.4
51195;BME280;37259;49.972;19.850;2023-01-28T01:36:01;99190;;;-0.5;79.4
51195;BME280;37259;49.972;19.850;2023-01-28T01:37:00;99190;;;-0.5;79.4
51195;BME280;37259;49.972;19.850;2023-01-28T01:38:00;99190;;;-0.5;79.4
51195;BME280;37259;49.972;19.850;2023-01-28T01:39:01;99190;;;-0.5;79.4
51195;BME280;37259;49.972;19.850;2023-01-28T01:40:00;99190;;;-0.5;79.4
51195;BME280;37259;49.972;19.850;2023-01-28T01:41:01;99190;;;-0.5;79.5
51195;BME280;37259;49.972;19.850;2023-01-28T01:42:00;99190;;;-0.5;79.6
51195;BME280;37259;49.972;19.850;2023-01-28T01:43:01;99190;;;-0.4;79.6
51195;BME280;37259;49.972;19.850;2023-01-28T01:44:01;99190;;;-0.4;79.6
51195;BME280;37259;49.972;19.850;2023-01-28T01:45:02;99190;;;-0.5;79.7
51195;BME280;37259;49.972;19.850;2023-01-28T01:46:01;99190;;;-0.5;79.7
51195;BME280;37259;49.972;19.850;2023-01-28T01:47:00;99200;;;-0.5;79.7
51195;BME280;37259;49.972;19.850;2023-01-28T01:48:01;99200;;;-0.5;79.7
51195;BME280;37259;49.972;19.850;2023-01-28T01:49:06;99200;;;-0.5;79.7
51195;BME280;37259;49.972;19.850;2023-01-28T01:50:02;99200;;;-0.5;79.7
51195;BME280;37259;49.972;19.850;2023-01-28T01:51:01;99200;;;-0.5;79.7
51195;BME280;37259;49.972;19.850;2023-01-28T01:52:02;99200;;;-0.5;79.7
51195;BME280;37259;49.972;19.850;2023-01-28T01:53:02;99200;;;-0.5;79.7
51195;BME280;37259;49.972;19.850;2023-01-28T01:54:00;99200;;;-0.5;79.6
51195;BME280;37259;49.972;19.850;2023-01-28T01:55:02;99200;;;-0.5;79.6
51195;BME280;37259;49.972;19.850;2023-01-28T01:56:01;99200;;;-0.6;79.6
51195;BME280;37259;49.972;19.850;2023-01-28T01:57:01;99200;;;-0.6;79.6
51195;BME280;37259;49.972;19.850;2023-01-28T01:58:01;99200;;;-0.7;80.1
51195;BME280;37259;49.972;19.850;2023-01-28T01:59:00;99200;;;-0.6;80.1
51195;BME280;37259;49.972;19.850;2023-01-28T02:00:01;99200;;;-0.6;80
51195;BME280;37259;49.972;19.850;2023-01-28T02:01:01;99200;;;-0.6;80
51195;BME280;37259;49.972;19.850;2023-01-28T02:02:01;99200;;;-0.6;80
51195;BME280;37259;49.972;19.850;2023-01-28T02:03:00;99200;;;-0.6;80
51195;BME280;37259;49.972;19.850;2023-01-28T02:04:03;99200;;;-0.6;80
51195;BME280;37259;49.972;19.850;2023-01-28T02:05:01;99200;;;-0.6;80
51195;BME280;37259;49.972;19.850;2023-01-28T02:06:01;99200;;;-0.6;80
51195;BME280;37259;49.972;19.850;2023-01-28T02:07:01;99200;;;-0.6;80
51195;BME280;37259;49.972;19.850;2023-01-28T02:08:01;99200;;;-0.6;80
51195;BME280;37259;49.972;19.850;2023-01-28T02:09:01;99200;;;-0.6;80
51195;BME280;37259;49.972;19.850;2023-01-28T02:10:01;99200;;;-0.5;80
51195;BME280;37259;49.972;19.850;2023-01-28T02:11:01;99200;;;-0.5;80
51195;BME280;37259;49.972;19.850;2023-01-28T02:12:02;99200;;;-0.5;80
51195;BME280;37259;49.972;19.850;2023-01-28T02:13:00;99200;;;-0.6;80
51195;BME280;37259;49.972;19.850;2023-01-28T02:14:01;99200;;;-0.6;80
51195;BME280;37259;49.972;19.850;2023-01-28T02:15:02;99200;;;-0.5;80
51195;BME280;37259;49.972;19.850;2023-01-28T02:16:01;99200;;;-0.5;80
51195;BME280;37259;49.972;19.850;2023-01-28T02:17:01;99200;;;-0.5;80
51195;BME280;37259;49.972;19.850;2023-01-28T02:18:01;99200;;;-0.5;80.1
51195;BME280;37259;49.972;19.850;2023-01-28T02:19:01;99200;;;-0.5;80.1
51195;BME280;37259;49.972;19.850;2023-01-28T02:20:02;99210;;;-0.5;80.1
51195;BME280;37259;49.972;19.850;2023-01-28T02:22:04;99200;;;-0.5;80
51195;BME280;37259;49.972;19.850;2023-01-28T02:23:20;99210;;;-0.5;79.9
51195;BME280;37259;49.972;19.850;2023-01-28T02:24:07;99210;;;-0.5;79.9
51195;BME280;37259;49.972;19.850;2023-01-28T02:25:07;99210;;;-0.4;79.8
51195;BME280;37259;49.972;19.850;2023-01-28T02:26:38;99210;;;-0.4;79.8
51195;BME280;37259;49.972;19.850;2023-01-28T02:27:06;99210;;;-0.4;79.8
51195;BME280;37259;49.972;19.850;2023-01-28T02:28:07;99210;;;-0.4;79.8
51195;BME280;37259;49.972;19.850;2023-01-28T02:29:01;99210;;;-0.4;79.8
51195;BME280;37259;49.972;19.850;2023-01-28T02:30:02;99210;;;-0.5;79.8
51195;BME280;37259;49.972;19.850;2023-01-28T02:31:03;99210;;;-0.5;79.9
51195;BME280;37259;49.972;19.850;2023-01-28T02:32:02;99210;;;-0.5;79.8
51195;BME280;37259;49.972;19.850;2023-01-28T02:33:02;99210;;;-0.5;79.8
51195;BME280;37259;49.972;19.850;2023-01-28T02:34:01;99210;;;-0.6;79.8
51195;BME280;37259;49.972;19.850;2023-01-28T02:35:02;99210;;;-0.6;79.9
51195;BME280;37259;49.972;19.850;2023-01-28T02:36:02;99210;;;-0.6;80.1
51195;BME280;37259;49.972;19.850;2023-01-28T02:37:02;99210;;;-0.6;80.1
51195;BME280;37259;49.972;19.850;2023-01-28T02:38:02;99200;;;-0.7;80.2
51195;BME280;37259;49.972;19.850;2023-01-28T02:39:02;99200;;;-0.7;80.2
51195;BME280;37259;49.972;19.850;2023-01-28T02:40:02;99200;;;-0.7;80.2
51195;BME280;37259;49.972;19.850;2023-01-28T02:41:03;99200;;;-0.6;80.1
51195;BME280;37259;49.972;19.850;2023-01-28T02:42:02;99200;;;-0.6;80.1
51195;BME280;37259;49.972;19.850;2023-01-28T02:43:01;99200;;;-0.6;80.1
51195;BME280;37259;49.972;19.850;2023-01-28T02:44:01;99200;;;-0.6;80.1
51195;BME280;37259;49.972;19.850;2023-01-28T02:45:01;99200;;;-0.6;80.1
51195;BME280;37259;49.972;19.850;2023-01-28T02:46:02;99200;;;-0.6;80.1
51195;BME280;37259;49.972;19.850;2023-01-28T02:47:01;99210;;;-0.6;80.1
51195;BME280;37259;49.972;19.850;2023-01-28T02:48:00;99210;;;-0.6;80.1
51195;BME280;37259;49.972;19.850;2023-01-28T02:49:01;99210;;;-0.6;80.2
51195;BME280;37259;49.972;19.850;2023-01-28T02:50:01;99210;;;-0.6;80.2
51195;BME280;37259;49.972;19.850;2023-01-28T02:51:02;99210;;;-0.5;80.2
51195;BME280;37259;49.972;19.850;2023-01-28T02:52:03;99210;;;-0.5;80.1
51195;BME280;37259;49.972;19.850;2023-01-28T02:53:05;99210;;;-0.5;80.1
51195;BME280;37259;49.972;19.850;2023-01-28T02:54:02;99210;;;-0.5;80
51195;BME280;37259;49.972;19.850;2023-01-28T02:55:02;99210;;;-0.5;80
51195;BME280;37259;49.972;19.850;2023-01-28T02:56:01;99210;;;-0.5;80
51195;BME280;37259;49.972;19.850;2023-01-28T02:57:03;99210;;;-0.5;80
51195;BME280;37259;49.972;19.850;2023-01-28T02:58:03;99210;;;-0.5;80
51195;BME280;37259;49.972;19.850;2023-01-28T02:59:02;99210;;;-0.5;80
51195;BME280;37259;49.972;19.850;2023-01-28T03:00:02;99210;;;-0.5;80
51195;BME280;37259;49.972;19.850;2023-01-28T03:01:02;99210;;;-0.5;80
51195;BME280;37259;49.972;19.850;2023-01-28T03:02:03;99210;;;-0.5;80
51195;BME280;37259;49.972;19.850;2023-01-28T03:03:03;99210;;;-0.6;79.9
51195;BME280;37259;49.972;19.850;2023-01-28T03:04:01;99210;;;-0.6;79.9
51195;BME280;37259;49.972;19.850;2023-01-28T03:05:02;99210;;;-0.6;80
51195;BME280;37259;49.972;19.850;2023-01-28T03:06:01;99210;;;-0.6;80
51195;BME280;37259;49.972;19.850;2023-01-28T03:07:01;99210;;;-0.6;80
51195;BME280;37259;49.972;19.850;2023-01-28T03:08:01;99210;;;-0.6;80.1
51195;BME280;37259;49.972;19.850;2023-01-28T03:09:01;99210;;;-0.6;80.2
51195;BME280;37259;49.972;19.850;2023-01-28T03:10:02;99210;;;-0.6;80.2
51195;BME280;37259;49.972;19.850;2023-01-28T03:11:01;99210;;;-0.6;80.1
51195;BME280;37259;49.972;19.850;2023-01-28T03:12:02;99210;;;-0.6;80.1
51195;BME280;37259;49.972;19.850;2023-01-28T03:13:01;99210;;;-0.6;80.1
51195;BME280;37259;49.972;19.850;2023-01-28T03:14:01;99210;;;-0.6;80.1
51195;BME280;37259;49.972;19.850;2023-01-28T03:15:02;99210;;;-0.6;80.1
51195;BME280;37259;49.972;19.850;2023-01-28T03:16:01;99210;;;-0.6;80.1
51195;BME280;37259;49.972;19.850;2023-01-28T03:17:01;99210;;;-0.6;80.1
51195;BME280;37259;49.972;19.850;2023-01-28T03:18:02;99210;;;-0.6;80.1
51195;BME280;37259;49.972;19.850;2023-01-28T03:19:01;99210;;;-0.6;80.2
51195;BME280;37259;49.972;19.850;2023-01-28T03:20:01;99210;;;-0.7;80.2
51195;BME280;37259;49.972;19.850;2023-01-28T03:21:01;99200;;;-0.7;80.1
51195;BME280;37259;49.972;19.850;2023-01-28T03:22:01;99200;;;-0.7;80.1
51195;BME280;37259;49.972;19.850;2023-01-28T03:23:09;99200;;;-0.6;80
51195;BME280;37259;49.972;19.850;2023-01-28T03:24:02;99200;;;-0.6;80
51195;BME280;37259;49.972;19.850;2023-01-28T03:25:00;99200;;;-0.7;79.9
51195;BME280;37259;49.972;19.850;2023-01-28T03:26:01;99200;;;-0.7;79.9
51195;BME280;37259;49.972;19.850;2023-01-28T03:27:01;99200;;;-0.7;80
51195;BME280;37259;49.972;19.850;2023-01-28T03:28:01;99200;;;-0.7;80
51195;BME280;37259;49.972;19.850;2023-01-28T03:29:02;99200;;;-0.6;80
51195;BME280;37259;49.972;19.850;2023-01-28T03:30:02;99200;;;-0.6;80
51195;BME280;37259;49.972;19.850;2023-01-28T03:31:02;99200;;;-0.6;80
51195;BME280;37259;49.972;19.850;2023-01-28T03:32:01;99200;;;-0.7;80.2
51195;BME280;37259;49.972;19.850;2023-01-28T03:33:01;99200;;;-0.7;80.3
51195;BME280;37259;49.972;19.850;2023-01-28T03:34:01;99200;;;-0.7;80.3
51195;BME280;37259;49.972;19.850;2023-01-28T03:35:01;99200;;;-0.7;80.1
51195;BME280;37259;49.972;19.850;2023-01-28T03:36:01;99200;;;-0.7;80.2
51195;BME280;37259;49.972;19.850;2023-01-28T03:37:01;99200;;;-0.7;80.2
51195;BME280;37259;49.972;19.850;2023-01-28T03:38:01;99200;;;-0.7;80.1
51195;BME280;37259;49.972;19.850;2023-01-28T03:39:01;99200;;;-0.7;80.1
51195;BME280;37259;49.972;19.850;2023-01-28T03:40:02;99200;;;-0.7;80.1
51195;BME280;37259;49.972;19.850;2023-01-28T03:41:01;99200;;;-0.7;80.1
51195;BME280;37259;49.972;19.850;2023-01-28T03:42:02;99210;;;-0.7;80.2
51195;BME280;37259;49.972;19.850;2023-01-28T03:43:01;99210;;;-0.8;80.2
51195;BME280;37259;49.972;19.850;2023-01-28T03:44:01;99210;;;-0.8;80.2
51195;BME280;37259;49.972;19.850;2023-01-28T03:45:01;99210;;;-0.8;80.3
51195;BME280;37259;49.972;19.850;2023-01-28T03:46:01;99210;;;-0.8;80.3
51195;BME280;37259;49.972;19.850;2023-01-28T03:47:01;99210;;;-0.7;80.3
51195;BME280;37259;49.972;19.850;2023-01-28T03:48:00;99210;;;-0.7;80.3
51195;BME280;37259;49.972;19.850;2023-01-28T03:49:01;99210;;;-0.7;80.3
51195;BME280;37259;49.972;19.850;2023-01-28T03:50:01;99210;;;-0.7;80.3
51195;BME280;37259;49.972;19.850;2023-01-28T03:51:01;99210;;;-0.7;80.3
51195;BME280;37259;49.972;19.850;2023-01-28T03:52:01;99210;;;-0.8;80.3
51195;BME280;37259;49.972;19.850;2023-01-28T03:53:01;99210;;;-0.8;80.3
51195;BME280;37259;49.972;19.850;2023-01-28T03:54:01;99210;;;-0.7;80.2
51195;BME280;37259;49.972;19.850;2023-01-28T03:55:01;99210;;;-0.7;80.2
51195;BME280;37259;49.972;19.850;2023-01-28T03:56:01;99210;;;-0.8;80.1
51195;BME280;37259;49.972;19.850;2023-01-28T03:57:01;99210;;;-0.7;80.1
51195;BME280;37259;49.972;19.850;2023-01-28T03:58:01;99210;;;-0.7;80.1
51195;BME280;37259;49.972;19.850;2023-01-28T03:59:01;99210;;;-0.8;80.1
51195;BME280;37259;49.972;19.850;2023-01-28T04:00:01;99210;;;-0.8;80.1
51195;BME280;37259;49.972;19.850;2023-01-28T04:01:01;99210;;;-0.7;80.1
51195;BME280;37259;49.972;19.850;2023-01-28T04:02:01;99210;;;-0.8;80.1
51195;BME280;37259;49.972;19.850;2023-01-28T04:03:01;99210;;;-0.8;80.1
51195;BME280;37259;49.972;19.850;2023-01-28T04:04:01;99220;;;-0.7;80
51195;BME280;37259;49.972;19.850;2023-01-28T04:05:01;99220;;;-0.7;80
51195;BME280;37259;49.972;19.850;2023-01-28T04:06:02;99220;;;-0.7;80
51195;BME280;37259;49.972;19.850;2023-01-28T04:07:01;99220;;;-0.7;80
51195;BME280;37259;49.972;19.850;2023-01-28T04:08:01;99220;;;-0.7;80.1
51195;BME280;37259;49.972;19.850;2023-01-28T04:09:01;99220;;;-0.7;80.1
51195;BME280;37259;49.972;19.850;2023-01-28T04:10:01;99220;;;-0.7;80
51195;BME280;37259;49.972;19.850;2023-01-28T04:11:01;99220;;;-0.7;80
51195;BME280;37259;49.972;19.850;2023-01-28T04:12:01;99220;;;-0.6;80
51195;BME280;37259;49.972;19.850;2023-01-28T04:13:01;99220;;;-0.7;79.9
51195;BME280;37259;49.972;19.850;2023-01-28T04:14:01;99220;;;-0.7;79.9
51195;BME280;37259;49.972;19.850;2023-01-28T04:15:01;99220;;;-0.7;79.7
51195;BME280;37259;49.972;19.850;2023-01-28T04:16:01;99220;;;-0.7;79.7
51195;BME280;37259;49.972;19.850;2023-01-28T04:17:01;99220;;;-0.7;79.6
51195;BME280;37259;49.972;19.850;2023-01-28T04:18:01;99220;;;-0.7;79.7
51195;BME280;37259;49.972;19.850;2023-01-28T04:19:01;99220;;;-0.7;79.8
51195;BME280;37259;49.972;19.850;2023-01-28T04:20:01;99220;;;-0.7;79.8
51195;BME280;37259;49.972;19.850;2023-01-28T04:21:01;99220;;;-0.7;79.8
51195;BME280;37259;49.972;19.850;2023-01-28T04:22:01;99220;;;-0.7;79.8
51195;BME280;37259;49.972;19.850;2023-01-28T04:23:01;99230;;;-0.8;79.9
51195;BME280;37259;49.972;19.850;2023-01-28T04:24:01;99230;;;-0.8;79.9
51195;BME280;37259;49.972;19.850;2023-01-28T04:25:01;99230;;;-0.8;79.9
51195;BME280;37259;49.972;19.850;2023-01-28T04:26:01;99230;;;-0.8;79.9
51195;BME280;37259;49.972;19.850;2023-01-28T04:27:01;99220;;;-0.7;79.9
51195;BME280;37259;49.972;19.850;2023-01-28T04:28:01;99230;;;-0.7;79.9
51195;BME280;37259;49.972;19.850;2023-01-28T04:29:01;99230;;;-0.7;79.9
51195;BME280;37259;49.972;19.850;2023-01-28T04:30:01;99230;;;-0.8;79.9
51195;BME280;37259;49.972;19.850;2023-01-28T04:31:01;99230;;;-0.8;79.9
51195;BME280;37259;49.972;19.850;2023-01-28T04:32:01;99230;;;-0.7;79.7
51195;BME280;37259;49.972;19.850;2023-01-28T04:33:01;99230;;;-0.7;79.7
51195;BME280;37259;49.972;19.850;2023-01-28T04:34:01;99230;;;-0.7;79.8
51195;BME280;37259;49.972;19.850;2023-01-28T04:35:01;99230;;;-0.7;79.8
51195;BME280;37259;49.972;19.850;2023-01-28T04:36:01;99230;;;-0.7;79.8
51195;BME280;37259;49.972;19.850;2023-01-28T04:37:01;99230;;;-0.7;79.8
51195;BME280;37259;49.972;19.850;2023-01-28T04:38:01;99230;;;-0.7;79.8
51195;BME280;37259;49.972;19.850;2023-01-28T04:39:01;99230;;;-0.7;79.9
51195;BME280;37259;49.972;19.850;2023-01-28T04:40:01;99230;;;-0.7;79.9
51195;BME280;37259;49.972;19.850;2023-01-28T04:41:01;99230;;;-0.7;79.9
51195;BME280;37259;49.972;19.850;2023-01-28T04:42:01;99230;;;-0.7;79.9
51195;BME280;37259;49.972;19.850;2023-01-28T04:43:01;99240;;;-0.7;79.8
51195;BME280;37259;49.972;19.850;2023-01-28T04:44:01;99230;;;-0.7;79.8
51195;BME280;37259;49.972;19.850;2023-01-28T04:45:01;99230;;;-0.7;79.8
51195;BME280;37259;49.972;19.850;2023-01-28T04:46:01;99230;;;-0.7;79.7
51195;BME280;37259;49.972;19.850;2023-01-28T04:47:01;99230;;;-0.7;79.7
51195;BME280;37259;49.972;19.850;2023-01-28T04:48:01;99230;;;-0.7;79.7
51195;BME280;37259;49.972;19.850;2023-01-28T04:49:01;99230;;;-0.7;79.7
51195;BME280;37259;49.972;19.850;2023-01-28T04:50:01;99240;;;-0.7;79.7
51195;BME280;37259;49.972;19.850;2023-01-28T04:51:01;99240;;;-0.7;79.7
51195;BME280;37259;49.972;19.850;2023-01-28T04:52:01;99240;;;-0.7;79.7
51195;BME280;37259;49.972;19.850;2023-01-28T04:53:01;99240;;;-0.7;79.7
51195;BME280;37259;49.972;19.850;2023-01-28T04:55:01;99240;;;-0.7;79.7
51195;BME280;37259;49.972;19.850;2023-01-28T04:56:01;99240;;;-0.7;79.7
51195;BME280;37259;49.972;19.850;2023-01-28T04:57:01;99240;;;-0.7;79.7
51195;BME280;37259;49.972;19.850;2023-01-28T04:58:01;99240;;;-0.7;79.7
51195;BME280;37259;49.972;19.850;2023-01-28T04:59:01;99240;;;-0.7;79.7
51195;BME280;37259;49.972;19.850;2023-01-28T05:00:01;99240;;;-0.7;79.7
51195;BME280;37259;49.972;19.850;2023-01-28T05:01:01;99240;;;-0.7;79.7
51195;BME280;37259;49.972;19.850;2023-01-28T05:02:01;99240;;;-0.7;79.7
51195;BME280;37259;49.972;19.850;2023-01-28T05:03:01;99240;;;-0.7;79.8
51195;BME280;37259;49.972;19.850;2023-01-28T05:04:01;99240;;;-0.8;79.9
51195;BME280;37259;49.972;19.850;2023-01-28T05:05:01;99240;;;-0.8;79.9
51195;BME280;37259;49.972;19.850;2023-01-28T05:06:01;99240;;;-0.7;79.7
51195;BME280;37259;49.972;19.850;2023-01-28T05:07:01;99240;;;-0.7;79.7
51195;BME280;37259;49.972;19.850;2023-01-28T05:08:01;99240;;;-0.8;79.9
51195;BME280;37259;49.972;19.850;2023-01-28T05:09:01;99240;;;-0.8;79.8
51195;BME280;37259;49.972;19.850;2023-01-28T05:10:01;99240;;;-0.8;79.8
51195;BME280;37259;49.972;19.850;2023-01-28T05:11:01;99240;;;-0.7;79.7
51195;BME280;37259;49.972;19.850;2023-01-28T05:12:01;99240;;;-0.7;79.7
51195;BME280;37259;49.972;19.850;2023-01-28T05:13:01;99240;;;-0.8;79.6
51195;BME280;37259;49.972;19.850;2023-01-28T05:14:01;99240;;;-0.8;79.6
51195;BME280;37259;49.972;19.850;2023-01-28T05:15:01;99240;;;-0.8;79.6
51195;BME280;37259;49.972;19.850;2023-01-28T05:16:01;99240;;;-0.8;79.7
51195;BME280;37259;49.972;19.850;2023-01-28T05:17:01;99240;;;-0.8;79.7
51195;BME280;37259;49.972;19.850;2023-01-28T05:18:01;99240;;;-0.8;79.7
51195;BME280;37259;49.972;19.850;2023-01-28T05:19:01;99250;;;-0.7;79.7
51195;BME280;37259;49.972;19.850;2023-01-28T05:20:01;99250;;;-0.7;79.7
51195;BME280;37259;49.972;19.850;2023-01-28T05:21:01;99250;;;-0.7;79.6
51195;BME280;37259;49.972;19.850;2023-01-28T05:22:01;99250;;;-0.7;79.6
51195;BME280;37259;49.972;19.850;2023-01-28T05:23:01;99250;;;-0.7;79.6
51195;BME280;37259;49.972;19.850;2023-01-28T05:24:01;99260;;;-0.8;79.7
51195;BME280;37259;49.972;19.850;2023-01-28T05:25:01;99260;;;-0.8;79.7
51195;BME280;37259;49.972;19.850;2023-01-28T05:26:01;99260;;;-0.7;79.8
51195;BME280;37259;49.972;19.850;2023-01-28T05:27:01;99260;;;-0.7;79.8
51195;BME280;37259;49.972;19.850;2023-01-28T05:28:01;99260;;;-0.8;79.6
51195;BME280;37259;49.972;19.850;2023-01-28T05:29:01;99260;;;-0.8;79.6
51195;BME280;37259;49.972;19.850;2023-01-28T05:30:01;99260;;;-0.9;79.7
51195;BME280;37259;49.972;19.850;2023-01-28T05:31:01;99260;;;-0.8;79.8
51195;BME280;37259;49.972;19.850;2023-01-28T05:32:01;99260;;;-0.8;79.8
51195;BME280;37259;49.972;19.850;2023-01-28T05:33:01;99260;;;-0.8;79.8
51195;BME280;37259;49.972;19.850;2023-01-28T05:34:01;99260;;;-0.8;79.7
51195;BME280;37259;49.972;19.850;2023-01-28T05:35:01;99260;;;-0.8;79.7
51195;BME280;37259;49.972;19.850;2023-01-28T05:36:01;99260;;;-0.8;79.6
51195;BME280;37259;49.972;19.850;2023-01-28T05:37:01;99260;;;-0.8;79.6
51195;BME280;37259;49.972;19.850;2023-01-28T05:38:01;99260;;;-0.7;79.6
51195;BME280;37259;49.972;19.850;2023-01-28T05:39:01;99260;;;-0.7;79.6